Time;durP1;ratioP1;P1;durP2;ratioP2;P2;SDS_P1;SDS_P2;PMS_P1;PMS_P2;Temp;Humidity;BMP_temperature;BMP_pressure;BME280_temperature;BME280_humidity;BME280_pressure;Samples;Min_cycle;Max_cycle;Signal;HPM_P1;HPM_P2
2023/03/26 00:00:47;;;;;;;9.32;2.83;;;;;;;;;;5054153;28;20055;-69
2023/03/26 00:03:15;;;;;;;7.32;2.55;;;;;;;;;;5052590;28;20029;-69
2023/03/26 00:05:41;;;;;;;8.70;2.70;;;;;;;;;;5053265;28;20029;-68
2023/03/26 00:08:08;;;;;;;12.25;2.80;;;;;;;;;;5054325;28;20035;-69
2023/03/26 00:10:35;;;;;;;6.50;2.08;;;;;;;;;;5054144;28;20094;-69
2023/03/26 00:13:02;;;;;;;10.10;2.35;;;;;;;;;;5053756;28;20035;-69
2023/03/26 00:15:28;;;;;;;8.20;2.40;;;;;;;;;;5054174;28;20029;-69
2023/03/26 00:17:55;;;;;;;9.98;2.38;;;;;;;;;;5053906;28;20033;-70
2023/03/26 00:20:21;;;;;;;8.38;2.40;;;;;;;;;;5053776;28;20033;-69
2023/03/26 00:22:49;;;;;;;13.55;2.50;;;;;;;;;;5053863;28;20029;-69
2023/03/26 00:25:16;;;;;;;7.85;2.42;;;;;;;;;;5053723;28;20041;-69
2023/03/26 00:27:44;;;;;;;7.97;2.17;;;;;;;;;;5053338;28;20535;-69
2023/03/26 00:30:10;;;;;;;4.97;2.13;;;;;;;;;;5054113;28;20039;-69
2023/03/26 00:32:37;;;;;;;7.63;2.58;;;;;;;;;;5053951;28;20033;-68
2023/03/26 00:35:04;;;;;;;7.60;2.53;;;;;;;;;;5053510;28;20037;-69
2023/03/26 00:37:32;;;;;;;9.35;2.97;;;;;;;;;;5053403;28;20401;-69
2023/03/26 00:40:03;;;;;;;6.05;2.63;;;;;;;;;;5053801;28;20017;-69
2023/03/26 00:42:30;;;;;;;;;;;;;;;;;;5053865;28;20070;-69
2023/03/26 00:44:57;;;;;;;9.73;3.50;;;;;;;;;;5053236;28;19913;-69
2023/03/26 00:47:24;;;;;;;10.98;3.10;;;;;;;;;;5053460;28;20025;-69
2023/03/26 00:49:50;;;;;;;10.52;3.17;;;;;;;;;;5053426;28;20021;-69
2023/03/26 00:52:22;;;;;;;11.00;3.42;;;;;;;;;;5053347;28;20029;-69
2023/03/26 00:54:51;;;;;;;14.38;3.03;;;;;;;;;;5053334;28;20017;-69
2023/03/26 00:57:19;;;;;;;9.18;2.92;;;;;;;;;;5053205;28;20043;-69
2023/03/26 00:59:45;;;;;;;5.00;2.40;;;;;;;;;;5052974;28;20025;-69
2023/03/26 01:02:15;;;;;;;6.68;2.45;;;;;;;;;;5052892;28;20482;-69
2023/03/26 01:04:46;;;;;;;8.53;1.93;;;;;;;;;;5053004;28;20492;-69
2023/03/26 01:07:15;;;;;;;9.67;2.10;;;;;;;;;;5052888;28;20032;-68
2023/03/26 01:09:49;;;;;;;11.48;2.47;;;;;;;;;;5052784;28;20415;-68
2023/03/26 01:12:17;;;;;;;7.40;2.55;;;;;;;;;;5052835;28;20070;-69
2023/03/26 01:14:44;;;;;;;7.00;2.10;;;;;;;;;;5052627;28;20025;-69
2023/03/26 01:17:11;;;;;;;7.03;2.10;;;;;;;;;;5052610;28;20040;-68
2023/03/26 01:19:38;;;;;;;10.02;2.55;;;;;;;;;;5052675;28;20024;-71
2023/03/26 01:22:05;;;;;;;7.60;1.95;;;;;;;;;;5052774;28;20039;-68
2023/03/26 01:24:32;;;;;;;8.88;2.50;;;;;;;;;;5052336;28;20025;-70
2023/03/26 01:27:04;;;;;;;14.00;2.60;;;;;;;;;;5052654;28;20496;-70
2023/03/26 01:29:51;;;;;;;7.13;2.40;;;;;;;;;;5052377;28;20049;-70
2023/03/26 01:32:20;;;;;;;6.65;2.08;;;;;;;;;;5052471;28;20031;-69
2023/03/26 01:34:56;;;;;;;6.47;2.13;;;;;;;;;;5052468;28;20035;-70
2023/03/26 01:37:37;;;;;;;8.38;2.30;;;;;;;;;;5052503;28;20392;-70
2023/03/26 01:40:07;;;;;;;6.80;2.28;;;;;;;;;;5052276;28;20025;-70
2023/03/26 01:42:39;;;;;;;7.05;2.60;;;;;;;;;;5052346;28;20025;-70
2023/03/26 01:45:09;;;;;;;9.88;2.63;;;;;;;;;;5052099;28;20210;-70
2023/03/26 01:47:36;;;;;;;8.48;2.58;;;;;;;;;;5052228;28;20090;-70
2023/03/26 01:50:03;;;;;;;6.05;2.60;;;;;;;;;;5052309;28;20029;-70
2023/03/26 01:52:30;;;;;;;7.75;2.67;;;;;;;;;;5052111;28;20025;-70
2023/03/26 01:54:57;;;;;;;6.20;2.38;;;;;;;;;;5052140;28;20032;-70
2023/03/26 01:57:26;;;;;;;10.35;2.60;;;;;;;;;;5052527;28;20027;-70
2023/03/26 01:59:52;;;;;;;7.95;3.10;;;;;;;;;;5051935;28;20036;-70
2023/03/26 02:02:25;;;;;;;8.90;2.63;;;;;;;;;;5052027;28;20017;-70
2023/03/26 02:04:54;;;;;;;8.15;2.53;;;;;;;;;;5052029;28;20031;-70
2023/03/26 02:07:49;;;;;;;9.88;2.50;;;;;;;;;;5051984;28;20039;-70
2023/03/26 02:10:25;;;;;;;7.47;2.55;;;;;;;;;;5051181;28;20040;-70
2023/03/26 02:12:51;;;;;;;7.88;2.40;;;;;;;;;;5051939;28;20025;-70
2023/03/26 02:15:18;;;;;;;6.45;2.22;;;;;;;;;;5052007;28;20024;-70
2023/03/26 02:17:45;;;;;;;12.32;2.88;;;;;;;;;;5052482;28;20021;-70
2023/03/26 02:20:14;;;;;;;9.98;2.92;;;;;;;;;;5051758;28;20512;-70
2023/03/26 02:22:44;;;;;;;9.48;2.97;;;;;;;;;;5051808;28;20021;-70
2023/03/26 02:25:15;;;;;;;6.20;2.60;;;;;;;;;;5051731;28;20037;-70
2023/03/26 02:27:41;;;;;;;;;;;;;;;;;;5053965;28;20029;-70
2023/03/26 02:30:10;;;;;;;6.13;2.30;;;;;;;;;;5055871;28;20280;-70
2023/03/26 02:32:37;;;;;;;8.90;2.90;;;;;;;;;;5055972;28;20028;-70
2023/03/26 02:35:05;;;;;;;7.82;2.50;;;;;;;;;;5055681;28;20499;-70
2023/03/26 02:37:35;;;;;;;8.07;2.63;;;;;;;;;;5055555;28;20021;-70
2023/03/26 02:40:03;;;;;;;7.25;2.45;;;;;;;;;;5055751;28;20561;-70
2023/03/26 02:42:29;;;;;;;7.85;2.60;;;;;;;;;;5055912;28;20029;-70
2023/03/26 02:44:56;;;;;;;12.10;2.80;;;;;;;;;;5055569;28;20028;-70
2023/03/26 02:47:22;;;;;;;13.70;2.63;;;;;;;;;;5055724;28;20020;-70
2023/03/26 02:49:48;;;;;;;7.55;2.33;;;;;;;;;;5055553;28;20029;-70
2023/03/26 02:52:17;;;;;;;4.80;1.90;;;;;;;;;;5055226;28;20474;-70
2023/03/26 02:54:44;;;;;;;7.22;2.50;;;;;;;;;;5055713;28;20028;-70
2023/03/26 02:57:10;;;;;;;6.38;2.70;;;;;;;;;;5055384;28;20024;-70
2023/03/26 02:59:37;;;;;;;9.05;2.17;;;;;;;;;;5055256;28;20535;-70
2023/03/26 03:02:03;;;;;;;7.88;2.25;;;;;;;;;;5055467;28;20021;-70
2023/03/26 03:04:29;;;;;;;7.75;2.47;;;;;;;;;;5053949;28;20028;-70
2023/03/26 03:06:56;;;;;;;9.07;2.55;;;;;;;;;;5087403;28;20047;-70
2023/03/26 03:09:26;;;;;;;6.88;2.55;;;;;;;;;;5055226;28;20019;-70
2023/03/26 03:11:52;;;;;;;8.20;2.55;;;;;;;;;;5055296;28;20044;-70
2023/03/26 03:14:19;;;;;;;10.48;2.42;;;;;;;;;;5055072;28;20033;-70
2023/03/26 03:16:45;;;;;;;11.18;2.60;;;;;;;;;;5055180;28;20481;-70
2023/03/26 03:19:11;;;;;;;8.70;2.88;;;;;;;;;;5055219;28;20037;-70
2023/03/26 03:21:38;;;;;;;6.30;2.50;;;;;;;;;;5054716;28;20021;-70
2023/03/26 03:24:05;;;;;;;9.02;2.58;;;;;;;;;;5054907;28;20031;-70
2023/03/26 03:26:32;;;;;;;10.68;2.67;;;;;;;;;;5054958;28;20501;-68
2023/03/26 03:28:59;;;;;;;9.52;2.83;;;;;;;;;;5054631;28;20467;-69
2023/03/26 03:31:27;;;;;;;8.70;3.25;;;;;;;;;;5054859;28;20149;-69
2023/03/26 03:33:53;;;;;;;6.13;2.35;;;;;;;;;;5054724;28;20470;-69
2023/03/26 03:36:23;;;;;;;12.88;3.08;;;;;;;;;;5054547;28;20021;-69
2023/03/26 03:38:49;;;;;;;7.22;2.65;;;;;;;;;;5054690;28;20035;-70
2023/03/26 03:41:17;;;;;;;8.95;2.53;;;;;;;;;;5054746;28;20405;-70
2023/03/26 03:43:44;;;;;;;4.47;2.17;;;;;;;;;;5054702;28;20038;-70
2023/03/26 03:46:10;;;;;;;5.78;2.30;;;;;;;;;;5054369;28;20409;-70
2023/03/26 03:48:37;;;;;;;7.45;2.20;;;;;;;;;;5054458;28;20027;-70
2023/03/26 03:51:04;;;;;;;10.35;2.85;;;;;;;;;;5054512;28;20033;-69
2023/03/26 03:53:35;;;;;;;6.50;2.35;;;;;;;;;;5054264;28;20401;-70
2023/03/26 03:56:02;;;;;;;9.88;2.08;;;;;;;;;;5054683;28;20020;-70
2023/03/26 03:58:29;;;;;;;8.13;2.38;;;;;;;;;;5053921;28;20041;-70
2023/03/26 04:00:59;;;;;;;7.82;2.33;;;;;;;;;;5054338;28;20023;-70
2023/03/26 04:03:29;;;;;;;8.50;2.28;;;;;;;;;;5054425;28;20032;-69
2023/03/26 04:05:55;;;;;;;7.45;2.40;;;;;;;;;;5053859;28;20040;-70
2023/03/26 04:08:22;;;;;;;9.07;2.22;;;;;;;;;;5054362;28;20018;-70
2023/03/26 04:10:49;;;;;;;5.82;2.28;;;;;;;;;;5054410;28;20027;-70
2023/03/26 04:13:15;;;;;;;9.05;2.08;;;;;;;;;;5053862;28;20018;-70
2023/03/26 04:15:42;;;;;;;8.68;2.20;;;;;;;;;;5053941;28;20032;-70
2023/03/26 04:18:10;;;;;;;7.82;2.42;;;;;;;;;;5054232;28;20021;-70
2023/03/26 04:20:39;;;;;;;9.68;2.30;;;;;;;;;;5053575;28;20026;-70
2023/03/26 04:23:06;;;;;;;8.00;2.45;;;;;;;;;;5053759;28;20473;-70
2023/03/26 04:25:35;;;;;;;6.65;2.28;;;;;;;;;;5053815;28;20111;-69
2023/03/26 04:28:07;;;;;;;7.10;2.15;;;;;;;;;;5053642;28;20505;-70
2023/03/26 04:30:34;;;;;;;12.80;2.30;;;;;;;;;;5053688;28;20397;-70
2023/03/26 04:33:05;;;;;;;10.05;2.38;;;;;;;;;;5053255;28;20502;-70
2023/03/26 04:35:35;;;;;;;9.43;2.92;;;;;;;;;;5053739;28;20029;-70
2023/03/26 04:38:05;;;;;;;9.68;2.60;;;;;;;;;;5053789;28;20043;-70
2023/03/26 04:40:33;;;;;;;5.05;2.08;;;;;;;;;;5053347;28;20029;-70
2023/03/26 04:43:01;;;;;;;8.88;2.40;;;;;;;;;;5053377;28;20067;-70
2023/03/26 04:45:29;;;;;;;8.95;2.30;;;;;;;;;;5053343;28;20037;-70
2023/03/26 04:47:58;;;;;;;10.27;2.38;;;;;;;;;;5053185;28;20031;-70
2023/03/26 04:50:25;;;;;;;7.28;1.92;;;;;;;;;;5052762;28;20025;-70
2023/03/26 04:52:53;;;;;;;8.57;2.83;;;;;;;;;;5053134;28;20025;-70
2023/03/26 04:55:39;;;;;;;9.13;2.80;;;;;;;;;;5053283;28;20035;-70
2023/03/26 04:58:06;;;;;;;8.40;2.35;;;;;;;;;;5049314;28;20036;-70
2023/03/26 05:00:32;;;;;;;8.13;2.63;;;;;;;;;;5053103;28;20031;-69
2023/03/26 05:03:00;;;;;;;9.27;2.67;;;;;;;;;;5052669;28;20385;-70
2023/03/26 05:05:27;;;;;;;6.75;2.15;;;;;;;;;;5053212;28;20041;-70
2023/03/26 05:07:53;;;;;;;6.18;2.28;;;;;;;;;;5052848;28;20384;-70
2023/03/26 05:10:20;;;;;;;7.18;2.30;;;;;;;;;;5053095;28;20081;-70
2023/03/26 05:12:46;;;;;;;10.40;2.50;;;;;;;;;;5052897;28;20074;-70
2023/03/26 05:15:14;;;;;;;10.18;2.33;;;;;;;;;;5052900;28;20025;-70
2023/03/26 05:17:40;;;;;;;8.45;2.28;;;;;;;;;;5052815;28;20029;-70
2023/03/26 05:20:12;;;;;;;6.00;1.90;;;;;;;;;;5053013;28;20023;-70
2023/03/26 05:22:38;;;;;;;6.35;2.20;;;;;;;;;;5051605;28;20033;-70
2023/03/26 05:25:05;;;;;;;7.10;2.20;;;;;;;;;;5051263;28;20435;-70
2023/03/26 05:27:32;;;;;;;7.60;2.00;;;;;;;;;;5052681;28;20059;-70
2023/03/26 05:30:02;;;;;;;6.75;2.38;;;;;;;;;;5052535;28;20033;-70
2023/03/26 05:32:30;;;;;;;6.60;1.88;;;;;;;;;;5052128;28;20025;-70
2023/03/26 05:34:56;;;;;;;8.57;2.40;;;;;;;;;;5052449;28;20491;-69
2023/03/26 05:37:23;;;;;;;8.02;2.28;;;;;;;;;;5052852;28;20031;-70
2023/03/26 05:39:56;;;;;;;9.05;1.90;;;;;;;;;;5052382;28;20024;-70
2023/03/26 05:42:22;;;;;;;7.90;2.00;;;;;;;;;;5052600;28;20021;-70
2023/03/26 05:44:48;;;;;;;9.55;2.17;;;;;;;;;;5052162;28;20037;-70
2023/03/26 05:47:15;;;;;;;5.55;2.00;;;;;;;;;;5052100;28;20041;-70
2023/03/26 05:49:41;;;;;;;9.02;2.65;;;;;;;;;;5052433;28;20029;-70
2023/03/26 05:52:07;;;;;;;11.15;2.25;;;;;;;;;;5051039;28;20029;-69
2023/03/26 05:54:34;;;;;;;11.25;2.30;;;;;;;;;;5052121;28;20505;-70
2023/03/26 05:57:00;;;;;;;5.50;2.33;;;;;;;;;;5052070;28;20029;-70
2023/03/26 05:59:27;;;;;;;8.32;2.33;;;;;;;;;;5052106;28;20401;-70
2023/03/26 06:01:53;;;;;;;9.55;2.53;;;;;;;;;;5050951;28;20029;-70
2023/03/26 06:04:20;;;;;;;11.20;2.38;;;;;;;;;;5051949;28;20021;-69
2023/03/26 06:06:46;;;;;;;10.45;2.90;;;;;;;;;;5052265;28;20025;-69
2023/03/26 06:09:13;;;;;;;12.52;3.03;;;;;;;;;;5051876;28;20432;-70
2023/03/26 06:11:40;;;;;;;8.95;2.75;;;;;;;;;;5051943;28;20020;-69
2023/03/26 06:14:07;;;;;;;14.57;3.03;;;;;;;;;;5052041;28;20485;-70
2023/03/26 06:16:33;;;;;;;9.00;2.72;;;;;;;;;;5051940;28;20029;-70
2023/03/26 06:19:00;;;;;;;11.15;3.10;;;;;;;;;;5052199;28;20066;-70
2023/03/26 06:21:26;;;;;;;7.00;2.85;;;;;;;;;;5051815;28;20496;-70
2023/03/26 06:23:53;;;;;;;10.20;3.00;;;;;;;;;;5051690;28;20025;-70
2023/03/26 06:26:19;;;;;;;9.55;2.95;;;;;;;;;;5051708;28;20039;-70
2023/03/26 06:28:45;;;;;;;8.55;3.05;;;;;;;;;;5051536;28;20078;-70
2023/03/26 06:31:12;;;;;;;7.53;2.90;;;;;;;;;;5051859;28;20025;-70
2023/03/26 06:33:38;;;;;;;10.35;3.67;;;;;;;;;;5051684;28;20082;-70
2023/03/26 06:36:05;;;;;;;10.95;3.80;;;;;;;;;;5051967;28;20025;-70
2023/03/26 06:38:31;;;;;;;10.23;5.63;;;;;;;;;;5051938;28;20037;-70
2023/03/26 06:41:07;;;;;;;15.02;5.57;;;;;;;;;;5051757;28;20031;-70
2023/03/26 06:43:35;;;;;;;4.65;2.30;;;;;;;;;;5051779;28;20380;-70
2023/03/26 06:46:01;;;;;;;2.80;1.30;;;;;;;;;;5051663;28;20044;-70
2023/03/26 06:48:28;;;;;;;2.67;0.93;;;;;;;;;;5051862;28;20025;-70
2023/03/26 06:50:54;;;;;;;3.05;0.85;;;;;;;;;;5051876;28;20025;-70
2023/03/26 06:53:21;;;;;;;5.50;1.55;;;;;;;;;;5051879;28;20074;-70
2023/03/26 06:55:47;;;;;;;7.32;2.78;;;;;;;;;;5051821;28;20082;-69
2023/03/26 06:58:13;;;;;;;2.92;0.88;;;;;;;;;;5051367;28;20022;-70
2023/03/26 07:00:41;;;;;;;3.10;1.75;;;;;;;;;;5051544;28;20029;-70
2023/03/26 07:03:07;;;;;;;3.30;2.58;;;;;;;;;;5050162;28;20543;-70
2023/03/26 07:05:34;;;;;;;1.77;1.10;;;;;;;;;;5051560;28;20047;-70
2023/03/26 07:08:00;;;;;;;5.82;2.20;;;;;;;;;;5051731;28;20478;-70
2023/03/26 07:10:26;;;;;;;2.53;1.20;;;;;;;;;;5051338;28;20029;-70
2023/03/26 07:12:53;;;;;;;3.28;0.98;;;;;;;;;;5051158;28;20017;-70
2023/03/26 07:15:19;;;;;;;2.83;1.35;;;;;;;;;;5055267;28;20025;-70
2023/03/26 07:17:46;;;;;;;3.50;0.88;;;;;;;;;;5055268;28;20027;-70
2023/03/26 07:20:12;;;;;;;2.75;1.10;;;;;;;;;;5055046;28;20035;-70
2023/03/26 07:22:39;;;;;;;3.92;1.45;;;;;;;;;;5055180;28;20040;-70
2023/03/26 07:25:05;;;;;;;4.63;1.58;;;;;;;;;;5054890;28;20037;-70
2023/03/26 07:27:51;;;;;;;2.30;1.02;;;;;;;;;;5054499;28;20051;-70
2023/03/26 07:30:32;;;;;;;3.17;1.10;;;;;;;;;;5054751;28;20401;-70
2023/03/26 07:33:01;;;;;;;4.90;0.93;;;;;;;;;;5055004;28;20017;-70
2023/03/26 07:35:30;;;;;;;1.63;0.80;;;;;;;;;;5054891;28;20021;-70
2023/03/26 07:38:03;;;;;;;1.75;1.15;;;;;;;;;;5054746;28;20446;-70
2023/03/26 07:40:41;;;;;;;3.17;1.50;;;;;;;;;;5054695;28;20074;-70
2023/03/26 07:43:22;;;;;;;3.45;1.30;;;;;;;;;;5054312;28;20031;-70
2023/03/26 07:45:49;;;;;;;5.50;1.50;;;;;;;;;;5054337;28;20506;-70
2023/03/26 07:48:20;;;;;;;3.70;1.08;;;;;;;;;;5054243;28;20025;-70
2023/03/26 07:50:47;;;;;;;2.83;0.80;;;;;;;;;;5054568;28;20396;-70
2023/03/26 07:53:14;;;;;;;1.90;1.00;;;;;;;;;;5054195;28;20708;-69
2023/03/26 07:55:50;;;;;;;3.97;0.80;;;;;;;;;;5054627;28;20020;-70
2023/03/26 07:58:55;;;;;;;2.30;0.90;;;;;;;;;;5054343;28;20527;-69
2023/03/26 08:01:24;;;;;;;2.30;1.55;;;;;;;;;;4993122;28;20027;-70
2023/03/26 08:03:57;;;;;;;2.55;0.85;;;;;;;;;;4992950;28;20038;-70
2023/03/26 08:06:32;;;;;;;3.38;1.08;;;;;;;;;;4992621;28;20061;-70
2023/03/26 08:09:17;;;;;;;3.58;1.15;;;;;;;;;;4992669;28;20037;-70
2023/03/26 08:11:49;;;;;;;2.65;0.95;;;;;;;;;;4992423;28;20022;-70
2023/03/26 08:14:15;;;;;;;2.50;1.08;;;;;;;;;;4992515;28;20506;-70
2023/03/26 08:16:55;;;;;;;3.08;0.90;;;;;;;;;;4992874;28;20108;-70
2023/03/26 08:19:28;;;;;;;4.43;1.30;;;;;;;;;;4992901;28;20038;-70
2023/03/26 08:22:05;;;;;;;5.95;1.52;;;;;;;;;;4992497;28;20265;-70
2023/03/26 08:24:58;;;;;;;4.53;1.20;;;;;;;;;;4991886;28;20026;-70
2023/03/26 08:27:36;;;;;;;3.20;0.90;;;;;;;;;;4915445;29;20040;-70
2023/03/26 08:30:02;;;;;;;4.95;1.10;;;;;;;;;;4915457;29;20051;-70
2023/03/26 08:32:29;;;;;;;4.28;1.50;;;;;;;;;;4953620;28;20054;-70
2023/03/26 08:34:56;;;;;;;8.07;1.98;;;;;;;;;;4972989;28;20027;-70
2023/03/26 08:37:23;;;;;;;4.35;1.08;;;;;;;;;;4972785;28;20042;-70
2023/03/26 08:39:49;;;;;;;3.78;1.38;;;;;;;;;;4972360;28;20027;-70
2023/03/26 08:42:18;;;;;;;6.05;1.52;;;;;;;;;;4972651;28;20040;-70
2023/03/26 08:44:56;;;;;;;7.03;1.58;;;;;;;;;;4972769;28;20041;-70
2023/03/26 08:47:22;;;;;;;4.50;1.23;;;;;;;;;;4972620;28;20057;-70
2023/03/26 08:50:07;;;;;;;5.47;1.52;;;;;;;;;;4972523;28;20041;-69
2023/03/26 08:52:52;;;;;;;3.15;1.02;;;;;;;;;;4972692;28;20038;-70
2023/03/26 08:55:37;;;;;;;6.95;1.05;;;;;;;;;;4972315;28;20024;-70
2023/03/26 08:58:03;;;;;;;4.75;1.30;;;;;;;;;;4972476;28;20065;-70
2023/03/26 09:00:44;;;;;;;4.25;1.60;;;;;;;;;;4972542;28;20023;-70
2023/03/26 09:03:25;;;;;;;6.38;1.20;;;;;;;;;;4977399;28;20041;-70
2023/03/26 09:06:03;;;;;;;4.90;1.25;;;;;;;;;;5032969;28;20551;-70
2023/03/26 09:08:48;;;;;;;4.47;1.30;;;;;;;;;;5032020;28;20234;-69
2023/03/26 09:11:38;;;;;;;3.72;1.20;;;;;;;;;;5033349;28;20474;-70
2023/03/26 09:14:23;;;;;;;6.05;2.92;;;;;;;;;;5030329;28;20044;-70
2023/03/26 09:16:55;;;;;;;5.80;1.10;;;;;;;;;;5033196;28;20029;-70
2023/03/26 09:19:30;;;;;;;7.15;2.03;;;;;;;;;;5032954;28;20033;-69
2023/03/26 09:22:15;;;;;;;5.72;1.00;;;;;;;;;;5033156;28;20032;-70
2023/03/26 09:25:00;;;;;;;6.20;1.65;;;;;;;;;;5032411;28;20028;-70
2023/03/26 09:27:29;;;;;;;4.32;1.25;;;;;;;;;;5032784;28;20036;-70
2023/03/26 09:29:55;;;;;;;4.82;1.40;;;;;;;;;;5032909;28;20029;-70
2023/03/26 09:32:41;;;;;;;4.20;1.50;;;;;;;;;;5032836;28;20033;-70
2023/03/26 09:35:12;;;;;;;8.10;1.88;;;;;;;;;;5032478;28;20017;-69
2023/03/26 09:37:50;;;;;;;7.28;1.15;;;;;;;;;;5032075;28;20021;-70
2023/03/26 09:40:19;;;;;;;5.65;1.20;;;;;;;;;;5032573;28;20037;-70
2023/03/26 09:42:48;;;;;;;10.27;3.00;;;;;;;;;;5032787;28;20018;-69
2023/03/26 09:45:14;;;;;;;6.70;1.60;;;;;;;;;;5032265;28;20562;-70
2023/03/26 09:47:56;;;;;;;4.95;1.67;;;;;;;;;;5032570;28;20029;-70
2023/03/26 09:50:25;;;;;;;5.63;1.60;;;;;;;;;;5032642;28;20017;-70
2023/03/26 09:52:56;;;;;;;9.13;2.97;;;;;;;;;;5032112;28;20023;-70
2023/03/26 09:55:22;;;;;;;;;;;;;;;;;;5032747;28;20029;-70
2023/03/26 09:57:52;;;;;;;11.48;2.58;;;;;;;;;;5032054;28;19931;-70
2023/03/26 10:00:47;;;;;;;7.43;2.90;;;;;;;;;;5047411;28;20017;-69
2023/03/26 10:03:20;;;;;;;3.63;1.70;;;;;;;;;;5029780;28;20155;-69
2023/03/26 10:06:12;;;;;;;5.40;1.80;;;;;;;;;;5029986;28;20059;-70
2023/03/26 10:08:57;;;;;;;5.88;1.98;;;;;;;;;;5027343;28;20026;-69
2023/03/26 10:11:23;;;;;;;7.68;2.10;;;;;;;;;;5029927;28;20029;-70
2023/03/26 10:13:49;;;;;;;6.38;1.58;;;;;;;;;;5029774;28;20037;-69
2023/03/26 10:16:18;;;;;;;7.97;2.20;;;;;;;;;;5029881;28;20418;-69
2023/03/26 10:19:03;;;;;;;6.47;1.80;;;;;;;;;;5013625;28;20032;-70
2023/03/26 10:21:39;;;;;;;5.22;1.42;;;;;;;;;;5029685;28;20510;-70
2023/03/26 10:24:11;;;;;;;6.90;1.65;;;;;;;;;;5029974;28;20403;-70
2023/03/26 10:26:38;;;;;;;6.50;2.33;;;;;;;;;;5029703;28;20140;-69
2023/03/26 10:29:23;;;;;;;7.53;2.60;;;;;;;;;;5029615;28;20510;-70
2023/03/26 10:32:18;;;;;;;13.48;3.17;;;;;;;;;;5029770;28;20549;-70
2023/03/26 10:35:03;;;;;;;13.77;3.65;;;;;;;;;;4970881;28;20053;-70
2023/03/26 10:37:35;;;;;;;9.00;3.47;;;;;;;;;;4970690;28;20026;-70
2023/03/26 10:40:04;;;;;;;12.32;2.90;;;;;;;;;;4970997;28;20038;-70
2023/03/26 10:42:31;;;;;;;9.27;2.53;;;;;;;;;;4971005;28;20037;-70
2023/03/26 10:45:00;;;;;;;12.23;2.38;;;;;;;;;;4970735;28;20503;-70
2023/03/26 10:47:34;;;;;;;6.75;2.10;;;;;;;;;;4970983;28;20030;-70
2023/03/26 10:50:19;;;;;;;11.02;2.00;;;;;;;;;;4974164;28;20038;-70
2023/03/26 10:52:56;;;;;;;7.65;1.80;;;;;;;;;;4975005;28;20038;-69
2023/03/26 10:55:33;;;;;;;10.05;2.47;;;;;;;;;;4974874;28;20602;-70
2023/03/26 10:58:03;;;;;;;11.13;2.40;;;;;;;;;;4974899;28;20045;-70
2023/03/26 11:00:30;;;;;;;11.20;2.17;;;;;;;;;;4974341;28;20037;-70
2023/03/26 11:03:11;;;;;;;6.53;1.60;;;;;;;;;;4974407;28;20434;-70
2023/03/26 11:05:55;;;;;;;9.68;1.73;;;;;;;;;;4974026;28;20573;-70
2023/03/26 11:08:32;;;;;;;5.00;1.50;;;;;;;;;;4974398;28;20027;-70
2023/03/26 11:11:05;;;;;;;7.45;2.50;;;;;;;;;;5001236;28;20040;-70
2023/03/26 11:13:40;;;;;;;7.45;2.25;;;;;;;;;;5035102;28;20485;-69
2023/03/26 11:16:16;;;;;;;7.75;1.70;;;;;;;;;;5035158;28;20029;-70
2023/03/26 11:18:49;;;;;;;4.32;1.20;;;;;;;;;;5034979;28;20242;-70
2023/03/26 11:21:35;;;;;;;10.75;1.88;;;;;;;;;;5035377;28;20033;-69
2023/03/26 11:24:05;;;;;;;7.53;2.55;;;;;;;;;;5035213;28;20025;-70
2023/03/26 11:26:43;;;;;;;5.07;1.75;;;;;;;;;;5034812;28;20025;-70
2023/03/26 11:29:10;;;;;;;5.75;1.50;;;;;;;;;;5034914;28;20029;-70
2023/03/26 11:32:03;;;;;;;9.50;2.00;;;;;;;;;;5035220;28;20082;-70
2023/03/26 11:34:32;;;;;;;7.47;1.40;;;;;;;;;;5034519;28;20425;-70
2023/03/26 11:37:01;;;;;;;6.03;1.55;;;;;;;;;;5034813;28;20014;-70
2023/03/26 11:39:29;;;;;;;9.13;2.00;;;;;;;;;;5034857;28;20031;-70
2023/03/26 11:42:02;;;;;;;8.65;1.88;;;;;;;;;;5034880;28;20025;-70
2023/03/26 11:44:32;;;;;;;8.88;1.77;;;;;;;;;;5034913;28;20029;-70
2023/03/26 11:47:03;;;;;;;9.50;1.98;;;;;;;;;;5034609;28;20565;-70
2023/03/26 11:49:30;;;;;;;13.60;2.30;;;;;;;;;;5034618;28;20033;-71
2023/03/26 11:51:57;;;;;;;13.23;2.63;;;;;;;;;;5034641;28;20492;-70
2023/03/26 11:54:24;;;;;;;10.15;2.28;;;;;;;;;;5034297;28;20025;-70
2023/03/26 11:56:58;;;;;;;11.20;2.03;;;;;;;;;;5034399;28;20360;-70
2023/03/26 11:59:28;;;;;;;10.77;2.35;;;;;;;;;;5042357;28;20024;-69
2023/03/26 12:01:57;;;;;;;15.43;3.53;;;;;;;;;;5054301;28;20025;-70
2023/03/26 12:04:26;;;;;;;11.65;3.75;;;;;;;;;;5054292;28;20037;-70
2023/03/26 12:06:58;;;;;;;12.30;2.00;;;;;;;;;;5054041;28;20033;-70
2023/03/26 12:09:25;;;;;;;8.70;2.63;;;;;;;;;;5054856;28;20022;-70
2023/03/26 12:11:53;;;;;;;10.90;2.03;;;;;;;;;;5053971;28;20037;-70
2023/03/26 12:14:25;;;;;;;8.95;1.70;;;;;;;;;;5054087;28;20025;-70
2023/03/26 12:17:02;;;;;;;8.77;1.63;;;;;;;;;;5054085;28;20028;-70
2023/03/26 12:19:34;;;;;;;6.30;2.10;;;;;;;;;;5053864;28;20033;-70
2023/03/26 12:22:01;;;;;;;10.95;2.00;;;;;;;;;;5052846;28;20033;-70
2023/03/26 12:24:28;;;;;;;8.15;2.00;;;;;;;;;;5054097;28;20025;-70
2023/03/26 12:27:00;;;;;;;9.98;1.92;;;;;;;;;;5053802;28;20094;-70
2023/03/26 12:29:32;;;;;;;2.50;0.80;;;;;;;;;;5053754;28;20051;-70
2023/03/26 12:32:12;;;;;;;1.48;0.50;;;;;;;;;;5053510;28;20029;-69
2023/03/26 12:34:39;;;;;;;4.32;0.55;;;;;;;;;;5054061;28;20021;-70
2023/03/26 12:37:06;;;;;;;2.50;0.60;;;;;;;;;;5053482;28;20496;-69
2023/03/26 12:39:33;;;;;;;0.95;0.77;;;;;;;;;;5053618;28;20033;-70
2023/03/26 12:42:00;;;;;;;1.75;1.00;;;;;;;;;;5053541;28;20016;-69
2023/03/26 12:44:33;;;;;;;1.45;0.90;;;;;;;;;;5053502;28;20032;-70
2023/03/26 12:47:08;;;;;;;2.03;0.60;;;;;;;;;;5053115;28;20033;-70
2023/03/26 12:49:36;;;;;;;1.02;0.50;;;;;;;;;;5053461;28;20469;-70
2023/03/26 12:52:17;;;;;;;1.05;0.57;;;;;;;;;;5053540;28;20021;-70
2023/03/26 12:54:47;;;;;;;1.33;0.68;;;;;;;;;;5053414;28;20020;-69
2023/03/26 12:57:24;;;;;;;1.52;0.88;;;;;;;;;;5053410;28;20058;-70
2023/03/26 12:59:56;;;;;;;1.77;1.10;;;;;;;;;;5053021;28;20035;-70
2023/03/26 13:02:49;;;;;;;3.22;0.98;;;;;;;;;;5052839;28;20025;-70
2023/03/26 13:05:45;;;;;;;2.72;0.80;;;;;;;;;;5052133;28;20451;-69
2023/03/26 13:08:14;;;;;;;0.82;0.63;;;;;;;;;;5048648;28;20040;-70
2023/03/26 13:10:46;;;;;;;3.90;0.65;;;;;;;;;;5052684;28;20051;-70
2023/03/26 13:13:26;;;;;;;2.75;0.90;;;;;;;;;;5052856;28;20428;-69
2023/03/26 13:15:53;;;;;;;1.08;0.98;;;;;;;;;;5052570;28;20035;-70
2023/03/26 13:18:34;;;;;;;0.82;0.73;;;;;;;;;;5052977;28;20500;-70
2023/03/26 13:21:07;;;;;;;1.73;0.85;;;;;;;;;;5052715;28;20029;-69
2023/03/26 13:23:37;;;;;;;1.48;0.80;;;;;;;;;;5052555;28;20419;-69
2023/03/26 13:26:12;;;;;;;2.92;0.85;;;;;;;;;;5052850;28;20040;-69
2023/03/26 13:28:57;;;;;;;1.13;0.70;;;;;;;;;;5052617;28;20045;-69
2023/03/26 13:31:30;;;;;;;2.05;0.88;;;;;;;;;;5052515;28;20035;-68
2023/03/26 13:34:04;;;;;;;1.75;0.80;;;;;;;;;;5052593;28;20032;-69
2023/03/26 13:36:31;;;;;;;1.58;0.80;;;;;;;;;;5052372;28;20474;-69
2023/03/26 13:39:09;;;;;;;2.78;0.98;;;;;;;;;;5052381;28;20051;-69
2023/03/26 13:41:44;;;;;;;1.45;0.77;;;;;;;;;;5052327;28;20069;-69
2023/03/26 13:44:11;;;;;;;6.60;1.30;;;;;;;;;;5052271;28;20027;-69
2023/03/26 13:46:48;;;;;;;10.73;2.28;;;;;;;;;;5051106;28;20047;-69
2023/03/26 13:49:16;;;;;;;8.02;2.33;;;;;;;;;;5052180;28;20035;-69
2023/03/26 13:51:44;;;;;;;6.80;2.20;;;;;;;;;;5052439;28;20025;-69
2023/03/26 13:54:13;;;;;;;6.65;1.60;;;;;;;;;;5052251;28;20021;-69
2023/03/26 13:57:00;;;;;;;7.18;1.50;;;;;;;;;;5052261;28;20031;-69
2023/03/26 13:59:29;;;;;;;9.35;2.38;;;;;;;;;;5048014;28;20033;-69
2023/03/26 14:01:59;;;;;;;7.90;2.08;;;;;;;;;;5052032;28;20033;-69
2023/03/26 14:04:46;;;;;;;10.18;2.13;;;;;;;;;;5052104;28;20481;-69
2023/03/26 14:07:19;;;;;;;5.53;1.80;;;;;;;;;;5050850;28;20040;-69
2023/03/26 14:09:48;;;;;;;6.18;1.85;;;;;;;;;;5052004;28;20389;-69
2023/03/26 14:12:20;;;;;;;10.07;2.05;;;;;;;;;;5052080;28;20021;-69
2023/03/26 14:15:06;;;;;;;5.45;1.40;;;;;;;;;;5051848;28;20025;-69
2023/03/26 14:18:07;;;;;;;10.27;2.03;;;;;;;;;;5052003;28;20074;-69
2023/03/26 14:20:52;;;;;;;7.80;2.15;;;;;;;;;;5029875;28;20433;-69
2023/03/26 14:23:21;;;;;;;7.35;2.15;;;;;;;;;;5030549;28;20033;-69
2023/03/26 14:26:05;;;;;;;6.85;2.00;;;;;;;;;;5034104;28;20045;-69
2023/03/26 14:28:50;;;;;;;10.70;2.20;;;;;;;;;;5033442;28;20405;-69
2023/03/26 14:31:30;;;;;;;9.95;1.90;;;;;;;;;;5034247;28;20046;-69
2023/03/26 14:34:06;;;;;;;9.98;2.25;;;;;;;;;;5033836;28;20025;-69
2023/03/26 14:36:44;;;;;;;9.05;1.92;;;;;;;;;;5033840;28;20784;-69
2023/03/26 14:39:13;;;;;;;8.52;1.65;;;;;;;;;;5033827;28;20025;-69
2023/03/26 14:42:11;;;;;;;8.38;1.50;;;;;;;;;;5033764;28;20034;-69
2023/03/26 14:45:03;;;;;;;6.47;1.20;;;;;;;;;;4974816;28;20041;-69
2023/03/26 14:47:29;;;;;;;;;;;;;;;;;;4975180;28;20053;-69
2023/03/26 14:50:11;;;;;;;4.90;1.20;;;;;;;;;;4974766;28;19916;-70
2023/03/26 14:52:47;;;;;;;4.53;1.08;;;;;;;;;;4974608;28;20030;-69
2023/03/26 14:55:32;;;;;;;2.97;0.77;;;;;;;;;;4974628;28;20049;-69
2023/03/26 14:58:01;;;;;;;2.75;1.00;;;;;;;;;;4974543;28;20019;-69
2023/03/26 15:00:33;;;;;;;2.95;1.40;;;;;;;;;;4974715;28;20337;-69
2023/03/26 15:03:06;;;;;;;2.33;1.15;;;;;;;;;;4974372;28;20033;-69
2023/03/26 15:05:32;;;;;;;3.53;1.35;;;;;;;;;;4974389;28;20030;-69
2023/03/26 15:07:58;;;;;;;2.90;1.10;;;;;;;;;;4974750;28;20174;-69